Time;durP1;ratioP1;P1;durP2;ratioP2;P2;SDS_P1;SDS_P2;PMS_P1;PMS_P2;Temp;Humidity;BMP_temperature;BMP_pressure;BME280_temperature;BME280_humidity;BME280_pressure;Samples;Min_cycle;Max_cycle;Signal;HPM_P1;HPM_P2
2022/10/07 00:01:26;;;;;;;;;;;;;;;20.19;61.93;102273.28;2312562;76;49166;-76
2022/10/07 00:04:27;;;;;;;;;;;;;;;20.20;61.90;102264.71;2312253;76;50401;-77
2022/10/07 00:07:29;;;;;;;;;;;;;;;20.20;61.89;102268.74;2344640;76;50674;-76
2022/10/07 00:10:30;;;;;;;;;;;;;;;20.19;61.92;102265.22;2312542;76;53836;-76
2022/10/07 00:13:32;;;;;;;;;;;;;;;20.19;61.86;102270.59;2313693;76;52445;-76
2022/10/07 00:16:35;;;;;;;;;;;;;;;20.19;61.90;102266.56;2315663;76;50482;-76
2022/10/07 00:19:37;;;;;;;;;;;;;;;20.19;61.85;102269.25;2345573;76;50409;-76
2022/10/07 00:22:38;;;;;;;;;;;;;;;20.17;61.91;102264.52;2367938;74;51508;-76
2022/10/07 00:25:39;;;;;;;;;;;;;;;;;;2260740;77;50849;-76
2022/10/07 00:28:41;;;;;;;;;;;;;;;20.19;61.83;102265.69;2241106;78;52068;-75
2022/10/07 00:31:42;;;;;;;;;;;;;;;20.20;61.79;102264.71;2273720;78;50362;-77
2022/10/07 00:34:44;;;;;;;;;;;;;;;20.18;61.87;102261.33;2265857;78;50114;-75
2022/10/07 00:37:46;;;;;;;;;;;;;;;20.16;61.95;102266.01;2291540;77;50715;-75
2022/10/07 00:40:47;;;;;;;;;;;;;;;20.15;61.94;102259.80;2241102;78;52654;-75
2022/10/07 00:43:48;;;;;;;;;;;;;;;;;;2263503;78;51616;-76
2022/10/07 00:46:49;;;;;;;;;;;;;;;;;;2255737;79;50415;-77
2022/10/07 00:50:07;;;;;;;;;;;;;;;20.15;61.90;102255.77;2293593;77;51552;-77
2022/10/07 00:53:09;;;;;;;;;;;;;;;;;;2259771;78;50308;-76
2022/10/07 00:56:10;;;;;;;;;;;;;;;20.15;61.94;102245.02;2269373;77;49576;-77
2022/10/07 00:59:13;;;;;;;;;;;;;;;20.15;61.95;102243.67;2300494;77;50292;-76
2022/10/07 01:02:14;;;;;;;;;;;;;;;20.15;61.89;102241.48;2300392;77;51436;-76
2022/10/07 01:05:16;;;;;;;;;;;;;;;20.15;61.93;102245.52;2300276;77;51483;-76
2022/10/07 01:08:18;;;;;;;;;;;;;;;20.14;61.89;102236.62;2274507;77;50985;-76
2022/10/07 01:11:30;;;;;;;;;;;;;;;20.14;61.90;102228.55;2300494;77;49930;-76
2022/10/07 01:14:46;;;;;;;;;;;;;;;20.15;61.88;102226.70;2256992;77;51706;-76
2022/10/07 01:17:55;;;;;;;;;;;;;;;20.15;61.84;102227.55;2253697;78;51529;-77
2022/10/07 01:20:58;;;;;;;;;;;;;;;20.13;61.86;102226.84;2254726;78;51853;-77
2022/10/07 01:24:08;;;;;;;;;;;;;;;20.14;61.78;102223.18;2266730;78;51622;-76
2022/10/07 01:27:14;;;;;;;;;;;;;;;20.14;61.78;102213.77;2271150;78;51585;-77
2022/10/07 01:30:16;;;;;;;;;;;;;;;20.13;61.79;102208.55;2265472;78;50440;-76
2022/10/07 01:33:19;;;;;;;;;;;;;;;20.12;61.83;102200.98;2260803;78;50090;-76
2022/10/07 01:36:21;;;;;;;;;;;;;;;20.13;61.81;102190.56;2287164;77;50766;-76
2022/10/07 01:39:24;;;;;;;;;;;;;;;20.13;61.79;102198.63;2287234;78;50403;-76
2022/10/07 01:42:26;;;;;;;;;;;;;;;20.12;61.82;102198.30;2287329;78;51436;-76
2022/10/07 01:45:29;;;;;;;;;;;;;;;20.14;61.74;102188.24;2260905;78;49535;-76
2022/10/07 01:48:31;;;;;;;;;;;;;;;20.14;61.74;102194.96;2268769;77;51558;-77
2022/10/07 01:51:37;;;;;;;;;;;;;;;20.13;61.73;102197.28;2249213;79;50004;-76
2022/10/07 01:54:46;;;;;;;;;;;;;;;20.12;61.74;102180.83;2248911;79;51416;-77
2022/10/07 01:58:01;;;;;;;;;;;;;;;20.13;61.73;102182.50;2222826;79;49739;-76
2022/10/07 02:01:05;;;;;;;;;;;;;;;20.13;61.69;102173.09;2249106;79;50375;-77
2022/10/07 02:04:17;;;;;;;;;;;;;;;20.14;61.67;102176.63;2248842;79;50293;-76
2022/10/07 02:07:23;;;;;;;;;;;;;;;20.12;61.64;102174.11;2187971;79;50205;-76
2022/10/07 02:10:26;;;;;;;;;;;;;;;20.13;61.69;102169.58;2223723;79;49634;-76
2022/10/07 02:13:48;;;;;;;;;;;;;;;20.12;61.69;102175.96;2270630;78;50386;-77
2022/10/07 02:16:50;;;;;;;;;;;;;;;20.11;61.70;102163.00;2281091;77;50269;-77
2022/10/07 02:19:52;;;;;;;;;;;;;;;20.11;61.70;102154.94;2281129;78;51529;-75
2022/10/07 02:22:55;;;;;;;;;;;;;;;20.10;61.68;102159.98;2257271;78;49840;-75
2022/10/07 02:25:57;;;;;;;;;;;;;;;20.10;61.76;102162.67;2256032;78;50227;-76
2022/10/07 02:28:59;;;;;;;;;;;;;;;20.10;61.76;102162.67;2281058;78;51505;-75
2022/10/07 02:32:01;;;;;;;;;;;;;;;20.10;61.81;102162.67;2281126;78;51603;-75
2022/10/07 02:35:04;;;;;;;;;;;;;;;20.10;61.77;102157.80;2257228;78;51328;-76
2022/10/07 02:38:07;;;;;;;;;;;;;;;20.10;61.71;102155.95;2281123;78;50381;-77
2022/10/07 02:41:31;;;;;;;;;;;;;;;20.10;61.74;102149.23;2281762;77;51508;-77
2022/10/07 02:44:34;;;;;;;;;;;;;;;20.09;61.78;102140.84;2287870;77;50737;-75
2022/10/07 02:47:49;;;;;;;;;;;;;;;20.09;61.78;102138.63;2267495;77;52615;-75
2022/10/07 02:50:51;;;;;;;;;;;;;;;20.10;61.73;102144.36;2291695;77;50647;-76
2022/10/07 02:53:53;;;;;;;;;;;;;;;20.09;61.70;102134.59;2291476;77;50450;-76
2022/10/07 02:56:54;;;;;;;;;;;;;;;20.10;61.67;102133.62;2291624;77;50234;-75
2022/10/07 02:59:56;;;;;;;;;;;;;;;20.09;61.69;102139.97;2267668;77;49413;-76
2022/10/07 03:03:00;;;;;;;;;;;;;;;20.07;61.71;102130.74;2291624;77;50691;-76
2022/10/07 03:06:01;;;;;;;;;;;;;;;20.06;61.74;102126.34;2291821;77;24857;-77
2022/10/07 03:09:03;;;;;;;;;;;;;;;20.07;61.69;102129.40;2291615;77;50362;-76
2022/10/07 03:12:06;;;;;;;;;;;;;;;20.06;61.75;102127.69;2267163;77;50076;-75
2022/10/07 03:15:09;;;;;;;;;;;;;;;20.07;61.71;102124.53;2268947;77;51470;-75
2022/10/07 03:18:25;;;;;;;;;;;;;;;20.06;61.74;102123.66;2272258;77;51555;-75
2022/10/07 03:21:15;;;;;;;;;;;;;;;20.06;61.82;102117.45;2303572;77;22390;-76
2022/10/07 03:24:17;;;;;;;;;;;;;;;20.07;61.73;102108.41;2274101;77;51374;-75
2022/10/07 03:27:18;;;;;;;;;;;;;;;20.07;61.74;102114.63;2240850;78;50746;-76
2022/10/07 03:30:21;;;;;;;;;;;;;;;20.06;61.78;102109.39;2263692;78;50692;-76
2022/10/07 03:33:24;;;;;;;;;;;;;;;20.05;61.78;102107.21;2263560;78;50276;-76
2022/10/07 03:36:26;;;;;;;;;;;;;;;20.07;61.71;102115.13;2229350;78;50993;-75
2022/10/07 03:39:28;;;;;;;;;;;;;;;20.07;61.68;102107.90;2232899;78;50743;-76
2022/10/07 03:42:29;;;;;;;;;;;;;;;20.06;61.71;102106.20;2244958;77;50730;-76
2022/10/07 03:45:31;;;;;;;;;;;;;;;20.05;61.74;102099.15;2262879;78;51492;-76
2022/10/07 03:48:32;;;;;;;;;;;;;;;20.04;61.73;102089.89;2238510;77;50992;-78
2022/10/07 03:51:35;;;;;;;;;;;;;;;20.05;61.67;102092.94;2259788;78;51395;-76
2022/10/07 03:54:36;;;;;;;;;;;;;;;20.07;61.55;102089.09;2251616;78;51528;-76
2022/10/07 03:57:50;;;;;;;;;;;;;;;20.06;61.50;102080.67;2249613;78;50660;-77
2022/10/07 04:00:51;;;;;;;;;;;;;;;20.08;61.47;102088.08;2248488;78;50965;-77
2022/10/07 04:03:53;;;;;;;;;;;;;;;20.08;61.48;102075.98;2246780;78;51239;-76
2022/10/07 04:06:55;;;;;;;;;;;;;;;20.14;61.57;102071.81;2280936;78;50349;-76
2022/10/07 04:09:56;;;;;;;;;;;;;;;20.16;61.68;102075.20;2280964;78;50385;-76
2022/10/07 04:12:58;;;;;;;;;;;;;;;20.15;61.62;102076.20;2248339;78;49402;-75
2022/10/07 04:16:01;;;;;;;;;;;;;;;20.15;61.55;102073.02;2268421;78;50764;-77
2022/10/07 04:19:04;;;;;;;;;;;;;;;20.15;61.45;102071.67;2271935;78;51444;-77
2022/10/07 04:22:05;;;;;;;;;;;;;;;20.14;61.45;102071.81;2260303;78;50286;-76
2022/10/07 04:28:27;;;;;;;;;;;;;;;20.12;61.45;102068.47;2249936;79;22479;-78
2022/10/07 04:31:29;;;;;;;;;;;;;;;20.13;61.35;102070.98;2249552;79;51410;-76
2022/10/07 04:34:30;;;;;;;;;;;;;;;20.13;61.54;102072.83;2249307;79;51465;-76
2022/10/07 04:37:32;;;;;;;;;;;;;;;20.08;62.02;102065.23;2199136;79;51152;-77
2022/10/07 04:40:33;;;;;;;;;;;;;;;20.08;62.03;102067.09;2249575;79;51471;-76
2022/10/07 04:43:35;;;;;;;;;;;;;;;20.10;61.94;102060.55;2222961;79;50332;-77
2022/10/07 04:46:36;;;;;;;;;;;;;;;20.11;61.81;102055.52;2249587;79;50333;-79
2022/10/07 04:49:38;;;;;;;;;;;;;;;20.08;61.97;102059.86;2259663;78;50306;-76
2022/10/07 04:52:41;;;;;;;;;;;;;;;20.08;61.93;102057.69;2226509;79;50697;-76
2022/10/07 04:55:44;;;;;;;;;;;;;;;20.06;62.15;102051.11;2251053;78;50727;-79
2022/10/07 04:58:45;;;;;;;;;;;;;;;20.05;62.13;102040.03;2252333;79;50336;-84
2022/10/07 05:01:47;;;;;;;;;;;;;;;20.07;62.19;102042.07;2226696;79;51726;-80
2022/10/07 05:04:49;;;;;;;;;;;;;;;20.06;62.21;102039.53;2226589;79;52444;-79
2022/10/07 05:07:51;;;;;;;;;;;;;;;20.07;62.31;102038.55;2226004;79;50716;-79
2022/10/07 05:10:56;;;;;;;;;;;;;;;20.08;62.75;102041.05;2265525;78;51459;-78
2022/10/07 05:13:57;;;;;;;;;;;;;;;20.08;62.58;102026.27;2253928;78;51048;-81
2022/10/07 05:16:59;;;;;;;;;;;;;;;20.08;62.46;102031.65;2253099;78;51423;-78
2022/10/07 05:20:00;;;;;;;;;;;;;;;20.09;62.55;102029.32;2264670;78;52216;-79
2022/10/07 05:23:02;;;;;;;;;;;;;;;20.09;62.81;102025.77;2214235;79;49932;-78
2022/10/07 05:26:06;;;;;;;;;;;;;;;20.07;62.74;102025.95;2195769;80;51766;-79
2022/10/07 05:29:08;;;;;;;;;;;;;;;20.08;62.82;102030.81;2196554;78;25072;-79
2022/10/07 05:32:09;;;;;;;;;;;;;;;20.08;62.72;102018.22;2264578;78;50400;-79
2022/10/07 05:35:11;;;;;;;;;;;;;;;20.07;62.62;102009.83;2236220;78;50333;-79
2022/10/07 05:38:12;;;;;;;;;;;;;;;20.07;62.66;102011.17;2230398;78;51747;-79
2022/10/07 05:41:14;;;;;;;;;;;;;;;20.07;63.03;102015.70;2230014;79;51575;-79
2022/10/07 05:44:16;;;;;;;;;;;;;;;20.07;63.20;102007.14;2219713;78;50640;-79
2022/10/07 05:47:17;;;;;;;;;;;;;;;20.07;62.93;102000.92;2219749;80;51475;-78
2022/10/07 05:50:19;;;;;;;;;;;;;;;20.07;62.77;102009.83;2198066;78;50939;-78
2022/10/07 05:53:20;;;;;;;;;;;;;;;20.09;62.68;102006.48;2224521;78;50005;-79
2022/10/07 05:56:22;;;;;;;;;;;;;;;20.08;62.91;101999.41;2194196;80;50980;-79
2022/10/07 05:59:24;;;;;;;;;;;;;;;20.08;63.40;102003.44;2227253;80;50245;-78
2022/10/07 06:02:26;;;;;;;;;;;;;;;20.09;63.07;102007.83;2193799;80;50041;-79
2022/10/07 06:05:31;;;;;;;;;;;;;;;20.16;62.81;102005.32;2193762;80;50348;-78
2022/10/07 06:08:31;;;;;;;;;;;;;;;;;;2227903;79;22333;-77
2022/10/07 06:14:52;;;;;;;;;;;;;;;20.13;62.93;102007.83;2204209;78;22194;-78
2022/10/07 06:17:54;;;;;;;;;;;;;;;20.14;62.82;102004.63;2192880;79;51785;-79
2022/10/07 06:20:56;;;;;;;;;;;;;;;20.13;62.57;102003.80;2228419;77;50632;-79
2022/10/07 06:23:57;;;;;;;;;;;;;;;20.14;62.51;101996.57;2270510;77;50260;-78
2022/10/07 06:26:59;;;;;;;;;;;;;;;20.19;62.49;102002.30;2255430;79;50377;-78
2022/10/07 06:30:01;;;;;;;;;;;;;;;20.19;62.49;102003.66;2247560;79;51784;-79
2022/10/07 06:33:02;;;;;;;;;;;;;;;20.15;62.59;101993.73;2255311;79;50385;-79
2022/10/07 06:36:04;;;;;;;;;;;;;;;20.19;62.46;101987.05;2272532;77;50694;-79
2022/10/07 06:39:06;;;;;;;;;;;;;;;20.26;62.41;101994.45;2272759;77;52170;-79
2022/10/07 06:42:07;;;;;;;;;;;;;;;20.32;62.21;101989.29;2247464;79;51412;-79
2022/10/07 06:45:09;;;;;;;;;;;;;;;20.32;62.12;101994.67;2254937;79;50121;-79
2022/10/07 06:48:11;;;;;;;;;;;;;;;20.38;61.90;101999.38;2272705;77;50379;-79
2022/10/07 06:51:16;;;;;;;;;;;;;;;20.39;61.80;102000.22;2267716;77;50344;-79
2022/10/07 06:54:16;;;;;;;;;;;;;;;20.37;61.77;102000.40;2283551;77;22442;-79
2022/10/07 06:57:18;;;;;;;;;;;;;;;20.37;61.68;101995.50;2269447;77;50614;-78
2022/10/07 07:00:20;;;;;;;;;;;;;;;20.37;61.58;101997.71;2225710;79;50687;-78
2022/10/07 07:03:21;;;;;;;;;;;;;;;20.36;61.57;101996.00;2246990;79;51562;-78
2022/10/07 07:06:23;;;;;;;;;;;;;;;20.37;61.46;101995.50;2215513;79;51735;-78
2022/10/07 07:09:24;;;;;;;;;;;;;;;20.36;61.39;101998.70;2247734;79;50366;-78
2022/10/07 07:12:26;;;;;;;;;;;;;;;20.37;61.35;101998.19;2215931;79;50616;-78
2022/10/07 07:15:28;;;;;;;;;;;;;;;20.38;61.22;101997.20;2229566;77;50318;-79
2022/10/07 07:18:30;;;;;;;;;;;;;;;20.37;61.21;101998.19;2241497;77;52581;-78
2022/10/07 07:21:37;;;;;;;;;;;;;;;20.38;61.16;102003.92;2235333;79;51478;-78
2022/10/07 07:24:35;;;;;;;;;;;;;;;20.38;61.06;102007.45;2254712;77;22383;-78
2022/10/07 07:27:36;;;;;;;;;;;;;;;20.40;60.94;101999.23;2268868;77;51509;-78
2022/10/07 07:30:38;;;;;;;;;;;;;;;20.39;60.99;101997.53;2222866;79;52547;-78
2022/10/07 07:33:40;;;;;;;;;;;;;;;20.39;60.92;101989.47;2255118;79;51470;-78
2022/10/07 07:36:46;;;;;;;;;;;;;;;20.37;60.92;101988.78;2246299;79;51583;-78
2022/10/07 07:39:47;;;;;;;;;;;;;;;20.39;60.86;101985.43;2256672;77;50913;-78
2022/10/07 07:42:49;;;;;;;;;;;;;;;20.40;60.77;101985.79;2222989;79;51257;-77
2022/10/07 07:45:52;;;;;;;;;;;;;;;20.41;60.69;101979.39;2222884;79;50710;-78
2022/10/07 07:48:54;;;;;;;;;;;;;;;20.40;60.71;101981.25;2275480;77;51530;-79
2022/10/07 07:51:55;;;;;;;;;;;;;;;20.44;60.60;101979.06;2269269;77;51460;-80
2022/10/07 07:54:58;;;;;;;;;;;;;;;20.42;60.63;101970.31;2249335;79;51068;-79
2022/10/07 07:57:59;;;;;;;;;;;;;;;20.42;60.64;101974.34;2249602;77;49944;-80
2022/10/07 08:01:05;;;;;;;;;;;;;;;20.42;60.58;101977.03;2274567;78;51548;-81
2022/10/07 08:04:07;;;;;;;;;;;;;;;20.42;60.58;101978.38;2257511;77;51736;-80
2022/10/07 08:07:11;;;;;;;;;;;;;;;20.43;60.53;101969.33;2257274;79;50322;-82
2022/10/07 08:10:12;;;;;;;;;;;;;;;20.43;60.51;101972.02;2257147;77;21919;-79
2022/10/07 08:13:13;;;;;;;;;;;;;;;20.41;60.52;101969.98;2272599;78;50684;-83
2022/10/07 08:16:16;;;;;;;;;;;;;;;20.40;60.53;101969.66;2253633;77;50690;-80
2022/10/07 08:19:18;;;;;;;;;;;;;;;20.38;60.53;101964.44;2254141;77;49365;-81
2022/10/07 08:22:19;;;;;;;;;;;;;;;20.36;60.61;101970.98;2285463;77;52370;-79
2022/10/07 08:25:21;;;;;;;;;;;;;;;20.35;60.67;101967.96;2293982;77;51461;-80
2022/10/07 08:28:22;;;;;;;;;;;;;;;20.33;60.68;101968.63;2244239;77;50170;-79
2022/10/07 08:31:29;;;;;;;;;;;;;;;20.32;60.70;101961.54;2235443;77;49911;-79
2022/10/07 08:34:27;;;;;;;;;;;;;;;20.29;60.77;101958.67;2293259;77;21731;-78
2022/10/07 08:37:29;;;;;;;;;;;;;;;20.28;60.75;101953.48;2259374;77;50695;-79
2022/10/07 08:40:31;;;;;;;;;;;;;;;20.24;60.84;101947.57;2259602;77;51908;-79
2022/10/07 08:43:32;;;;;;;;;;;;;;;20.25;60.84;101937.69;2260822;77;49545;-79
2022/10/07 08:46:35;;;;;;;;;;;;;;;20.22;60.83;101939.69;2294387;77;50279;-79
2022/10/07 08:49:55;;;;;;;;;;;;;;;20.22;60.82;101941.03;2286422;77;51513;-79
2022/10/07 08:52:58;;;;;;;;;;;;;;;20.20;60.88;101936.83;2269343;77;50385;-78
2022/10/07 08:56:01;;;;;;;;;;;;;;;20.18;60.92;101930.25;2236288;79;49496;-79
2022/10/07 08:59:21;;;;;;;;;;;;;;;20.18;60.88;101922.19;2256439;77;50636;-79
2022/10/07 09:02:39;;;;;;;;;;;;;;;20.19;60.75;101921.69;2301938;77;50662;-80
2022/10/07 09:05:43;;;;;;;;;;;;;;;20.16;60.76;101914.78;2302033;77;50697;-80
2022/10/07 09:08:45;;;;;;;;;;;;;;;20.19;60.67;101913.62;2322931;76;50959;-80
2022/10/07 09:11:47;;;;;;;;;;;;;;;20.21;60.61;101909.77;2302158;77;50764;-80
2022/10/07 09:14:50;;;;;;;;;;;;;;;20.21;60.61;101906.24;2302097;77;50591;-80
2022/10/07 09:17:53;;;;;;;;;;;;;;;20.21;60.61;101897.67;2261840;77;51541;-80
2022/10/07 09:20:55;;;;;;;;;;;;;;;20.20;60.60;101901.37;2271263;78;50259;-79
2022/10/07 09:23:57;;;;;;;;;;;;;;;20.20;60.62;101894.66;2282427;78;50080;-80
2022/10/07 09:26:59;;;;;;;;;;;;;;;20.18;60.66;101885.91;2257779;78;51532;-79
2022/10/07 09:30:01;;;;;;;;;;;;;;;20.18;60.67;101879.70;2282626;78;50833;-79
2022/10/07 09:33:01;;;;;;;;;;;;;;;;;;2282461;78;52215;-79
2022/10/07 09:36:04;;;;;;;;;;;;;;;20.18;60.66;101875.16;2282456;78;50791;-79
2022/10/07 09:39:16;;;;;;;;;;;;;;;20.21;60.52;101875.34;2257568;77;51552;-79
2022/10/07 09:42:25;;;;;;;;;;;;;;;20.16;60.70;101871.79;2282474;78;50771;-79
2022/10/07 09:45:29;;;;;;;;;;;;;;;20.12;60.81;101871.80;2258793;78;51002;-79
2022/10/07 09:48:32;;;;;;;;;;;;;;;20.15;60.69;101861.22;2284608;78;51629;-79
2022/10/07 09:51:34;;;;;;;;;;;;;;;20.19;60.61;101856.71;2288549;78;50858;-80
2022/10/07 09:54:35;;;;;;;;;;;;;;;20.20;60.54;101853.00;2261018;78;50648;-79
2022/10/07 09:57:37;;;;;;;;;;;;;;;20.22;60.50;101856.88;2262168;78;49893;-79
2022/10/07 10:00:42;;;;;;;;;;;;;;;20.21;60.53;101851.98;2288680;78;50086;-78
2022/10/07 10:03:44;;;;;;;;;;;;;;;20.20;60.52;101844.11;2287922;78;51526;-78
2022/10/07 10:06:47;;;;;;;;;;;;;;;20.20;60.53;101845.45;2287930;78;50618;-78
2022/10/07 10:09:53;;;;;;;;;;;;;;;20.19;60.52;101848.64;2261094;78;51257;-78
2022/10/07 10:12:55;;;;;;;;;;;;;;;20.18;60.54;101840.23;2288531;78;50423;-78
2022/10/07 10:15:57;;;;;;;;;;;;;;;20.16;60.58;101842.23;2287970;78;51316;-78
2022/10/07 10:19:01;;;;;;;;;;;;;;;20.20;60.52;101834.70;2279335;77;50765;-79
2022/10/07 10:22:02;;;;;;;;;;;;;;;20.13;60.71;101830.47;2245891;78;49824;-79
2022/10/07 10:28:43;;;;;;;;;;;;;;;20.12;60.75;101819.40;2265787;78;22496;-80
2022/10/07 10:31:43;;;;;;;;;;;;;;;;;;2265779;78;22380;-79
2022/10/07 10:34:49;;;;;;;;;;;;;;;20.22;60.45;101805.31;2265220;78;51607;-79
2022/10/07 10:38:09;;;;;;;;;;;;;;;20.20;60.45;101795.22;2241883;78;50444;-79
2022/10/07 10:41:13;;;;;;;;;;;;;;;20.21;60.44;101799.58;2265412;78;50200;-78
2022/10/07 10:44:19;;;;;;;;;;;;;;;20.20;60.44;101794.39;2265156;78;50762;-78
2022/10/07 10:47:39;;;;;;;;;;;;;;;20.19;60.43;101784.15;2265126;78;51501;-79
2022/10/07 10:50:40;;;;;;;;;;;;;;;;;;2265274;78;50437;-79
2022/10/07 10:53:56;;;;;;;;;;;;;;;20.18;60.50;101785.64;2230708;78;50107;-79
2022/10/07 10:56:59;;;;;;;;;;;;;;;20.16;60.54;101771.53;2264627;78;51487;-79
2022/10/07 11:00:06;;;;;;;;;;;;;;;20.14;60.63;101760.09;2265254;78;51479;-79
2022/10/07 11:03:22;;;;;;;;;;;;;;;20.08;60.75;101749.52;2265595;78;50684;-79
2022/10/07 11:06:25;;;;;;;;;;;;;;;20.09;60.76;101745.84;2265323;78;22319;-79
2022/10/07 11:09:33;;;;;;;;;;;;;;;20.15;60.60;101733.58;2265451;78;22096;-78
2022/10/07 11:12:37;;;;;;;;;;;;;;;20.21;60.45;101727.02;2265416;78;51613;-79
2022/10/07 11:15:40;;;;;;;;;;;;;;;20.23;60.33;101722.32;2265111;77;50460;-79
2022/10/07 11:18:46;;;;;;;;;;;;;;;20.23;60.33;101706.20;2293070;77;50827;-79
2022/10/07 11:21:51;;;;;;;;;;;;;;;20.23;60.30;101712.91;2288897;77;51627;-79
2022/10/07 11:24:55;;;;;;;;;;;;;;;20.21;60.30;101696.62;2303048;77;51461;-79
2022/10/07 11:27:59;;;;;;;;;;;;;;;20.23;60.32;101699.98;2303044;77;22247;-80
2022/10/07 11:31:09;;;;;;;;;;;;;;;20.21;60.31;101689.91;2266646;77;49719;-78
2022/10/07 11:34:16;;;;;;;;;;;;;;;20.20;60.34;101685.55;2262746;78;50320;-78
2022/10/07 11:37:19;;;;;;;;;;;;;;;20.18;60.37;101687.05;2271421;77;51446;-78
2022/10/07 11:40:21;;;;;;;;;;;;;;;20.14;60.51;101680.35;2302062;77;50880;-79
2022/10/07 11:43:33;;;;;;;;;;;;;;;20.10;60.57;101673.63;2268203;77;49390;-78
2022/10/07 11:46:35;;;;;;;;;;;;;;;20.13;60.60;101666.56;2302806;76;50770;-80
2022/10/07 11:49:38;;;;;;;;;;;;;;;20.20;60.51;101667.57;2293675;77;50356;-80
2022/10/07 11:52:42;;;;;;;;;;;;;;;20.26;60.41;101655.81;2286129;77;50520;-79
2022/10/07 11:55:44;;;;;;;;;;;;;;;20.30;60.31;101649.09;2233740;78;51910;-79
2022/10/07 11:58:47;;;;;;;;;;;;;;;20.28;60.35;101641.70;2231298;78;50446;-79
2022/10/07 12:01:51;;;;;;;;;;;;;;;20.27;60.40;101643.56;2264782;78;51519;-78
2022/10/07 12:04:52;;;;;;;;;;;;;;;20.26;60.40;101632.97;2264244;78;51539;-78
2022/10/07 12:07:58;;;;;;;;;;;;;;;20.27;60.39;101622.54;2207480;78;51626;-79
2022/10/07 12:11:13;;;;;;;;;;;;;;;20.26;60.40;101622.22;2231311;78;50419;-79
2022/10/07 12:14:35;;;;;;;;;;;;;;;20.25;60.42;101616.01;2264718;78;51519;-79
2022/10/07 12:17:37;;;;;;;;;;;;;;;20.25;60.49;101623.23;2269876;77;51555;-77
2022/10/07 12:20:45;;;;;;;;;;;;;;;20.27;60.67;101609.09;2250877;77;50950;-80
2022/10/07 12:23:47;;;;;;;;;;;;;;;20.26;61.84;101602.06;2251514;79;50719;-79
2022/10/07 12:26:49;;;;;;;;;;;;;;;20.28;62.10;101600.05;2282247;77;50522;-79
2022/10/07 12:30:01;;;;;;;;;;;;;;;20.33;62.59;101593.66;2293790;77;50808;-79
2022/10/07 12:33:00;;;;;;;;;;;;;;;20.37;61.96;101594.97;2268251;77;22450;-79
2022/10/07 12:36:23;;;;;;;;;;;;;;;20.40;61.81;101591.96;2251133;79;49934;-78
2022/10/07 12:39:34;;;;;;;;;;;;;;;20.38;63.00;101584.56;2251155;79;51590;-79
2022/10/07 12:42:36;;;;;;;;;;;;;;;20.33;63.31;101585.08;2251237;79;50799;-78
2022/10/07 12:45:39;;;;;;;;;;;;;;;20.30;63.24;101579.22;2251111;79;51635;-79
2022/10/07 12:48:51;;;;;;;;;;;;;;;20.31;63.22;101571.48;2250909;79;51611;-78
2022/10/07 12:51:53;;;;;;;;;;;;;;;20.30;62.78;101566.61;2285597;77;50739;-79
2022/10/07 12:54:59;;;;;;;;;;;;;;;20.30;62.94;101563.09;2293620;77;50904;-79
2022/10/07 13:01:38;;;;;;;;;;;;;;;20.29;62.79;101547.45;2294120;77;23409;-79
2022/10/07 13:04:58;;;;;;;;;;;;;;;20.30;62.61;101550.48;2293824;77;50690;-79
2022/10/07 13:08:17;;;;;;;;;;;;;;;20.31;62.76;101540.56;2293862;77;50699;-79
2022/10/07 13:11:38;;;;;;;;;;;;;;;20.30;62.79;101533.53;2260855;77;50072;-78
2022/10/07 13:14:50;;;;;;;;;;;;;;;20.31;62.72;101527.96;2293874;77;51438;-79
2022/10/07 13:18:03;;;;;;;;;;;;;;;20.30;62.70;101526.81;2294015;77;51378;-79
2022/10/07 13:21:09;;;;;;;;;;;;;;;20.30;62.69;101516.06;2277720;77;51078;-78
2022/10/07 13:24:19;;;;;;;;;;;;;;;20.30;62.78;101516.06;2242725;78;49492;-79
2022/10/07 13:27:24;;;;;;;;;;;;;;;20.31;62.61;101511.84;2273469;78;50418;-81
2022/10/07 13:30:39;;;;;;;;;;;;;;;20.33;62.71;101507.13;2273553;78;51555;-79
2022/10/07 13:33:43;;;;;;;;;;;;;;;20.32;62.70;101509.98;2273271;78;52231;-79
2022/10/07 13:36:45;;;;;;;;;;;;;;;20.32;62.59;101509.98;2268083;78;49624;-78
2022/10/07 13:39:46;;;;;;;;;;;;;;;20.31;62.67;101508.31;2273563;78;50942;-79
2022/10/07 13:42:54;;;;;;;;;;;;;;;20.33;62.72;101500.41;2273268;78;52329;-78
2022/10/07 13:45:56;;;;;;;;;;;;;;;20.33;62.70;101498.23;2273085;77;51368;-78
2022/10/07 13:48:57;;;;;;;;;;;;;;;20.35;62.60;101496.22;2273961;77;49325;-79
2022/10/07 13:52:00;;;;;;;;;;;;;;;20.33;62.62;101483.45;2279749;77;50727;-78
2022/10/07 13:55:02;;;;;;;;;;;;;;;20.32;62.70;101482.62;2255564;79;51609;-78
2022/10/07 13:58:04;;;;;;;;;;;;;;;20.34;62.55;101479.23;2255729;79;50203;-79
2022/10/07 14:01:05;;;;;;;;;;;;;;;20.34;62.55;101477.05;2256045;79;51546;-79
2022/10/07 14:04:12;;;;;;;;;;;;;;;20.35;62.43;101474.72;2255468;79;51500;-79
2022/10/07 14:07:18;;;;;;;;;;;;;;;20.37;62.39;101466.81;2255695;78;50929;-79
2022/10/07 14:10:20;;;;;;;;;;;;;;;20.38;62.30;101459.58;2255719;79;51564;-79
2022/10/07 14:13:21;;;;;;;;;;;;;;;20.39;62.26;101454.52;2259973;78;50142;-79
2022/10/07 14:16:24;;;;;;;;;;;;;;;20.38;62.19;101454.20;2256111;79;51703;-79
2022/10/07 14:19:31;;;;;;;;;;;;;;;20.40;62.19;101449.50;2271341;77;50692;-79
2022/10/07 14:22:36;;;;;;;;;;;;;;;20.42;62.20;101442.06;2296110;77;50313;-79
2022/10/07 14:25:40;;;;;;;;;;;;;;;20.40;62.21;101444.95;2243316;78;50123;-79
2022/10/07 14:28:42;;;;;;;;;;;;;;;20.40;62.27;101431.51;2278730;78;50927;-80
2022/10/07 14:35:18;;;;;;;;;;;;;;;20.42;62.13;101418.73;2264184;78;22315;-78
2022/10/07 14:38:26;;;;;;;;;;;;;;;20.41;62.14;101421.08;2242725;78;49600;-79
2022/10/07 14:41:28;;;;;;;;;;;;;;;20.41;62.21;101417.05;2259097;78;51659;-79
2022/10/07 14:44:30;;;;;;;;;;;;;;;20.40;62.19;101410.52;2242510;78;50064;-79
2022/10/07 14:47:32;;;;;;;;;;;;;;;20.39;62.21;101402.94;2286271;78;50728;-79
2022/10/07 14:50:34;;;;;;;;;;;;;;;20.40;62.21;101400.59;2249278;77;49634;-78
2022/10/07 14:53:36;;;;;;;;;;;;;;;20.39;62.21;101398.91;2249471;78;51467;-81
2022/10/07 14:56:38;;;;;;;;;;;;;;;20.39;62.27;101395.38;2254072;79;51400;-79
2022/10/07 14:59:39;;;;;;;;;;;;;;;20.38;62.33;101389.69;2254159;79;52220;-80
2022/10/07 15:02:41;;;;;;;;;;;;;;;20.39;62.30;101389.50;2238005;79;51096;-79
2022/10/07 15:05:42;;;;;;;;;;;;;;;20.39;62.28;101379.26;2235919;79;51410;-79
2022/10/07 15:08:44;;;;;;;;;;;;;;;20.38;62.24;101382.46;2254036;79;49981;-80
2022/10/07 15:11:46;;;;;;;;;;;;;;;20.38;62.26;101380.28;2254235;79;50756;-79
2022/10/07 15:14:48;;;;;;;;;;;;;;;20.36;62.30;101380.96;2237894;79;51075;-79
2022/10/07 15:17:49;;;;;;;;;;;;;;;20.36;62.16;101372.90;2236888;79;51545;-79
2022/10/07 15:20:55;;;;;;;;;;;;;;;20.34;62.22;101369.55;2268868;77;51534;-79
2022/10/07 15:23:57;;;;;;;;;;;;;;;20.34;62.22;101357.45;2303588;76;49857;-80
2022/10/07 15:26:58;;;;;;;;;;;;;;;20.32;62.23;101350.92;2285198;76;49642;-80
2022/10/07 15:30:00;;;;;;;;;;;;;;;20.34;62.17;101356.11;2312259;76;49491;-80
2022/10/07 15:33:01;;;;;;;;;;;;;;;20.31;62.18;101352.44;2341839;76;50223;-80
2022/10/07 15:36:03;;;;;;;;;;;;;;;20.28;62.19;101355.48;2341788;76;50251;-80
2022/10/07 15:39:05;;;;;;;;;;;;;;;20.27;62.20;101350.62;2312250;76;50656;-79
2022/10/07 15:42:06;;;;;;;;;;;;;;;20.28;62.21;101348.77;2312333;76;50367;-79
2022/10/07 15:45:09;;;;;;;;;;;;;;;20.26;62.14;101350.27;2341598;76;50409;-80
2022/10/07 15:48:11;;;;;;;;;;;;;;;20.25;62.13;101345.09;2341748;76;51582;-79
2022/10/07 15:51:14;;;;;;;;;;;;;;;20.22;62.16;101344.42;2286396;76;50085;-79
2022/10/07 15:54:15;;;;;;;;;;;;;;;20.22;62.12;101344.42;2330997;75;50833;-79
2022/10/07 15:57:17;;;;;;;;;;;;;;;20.22;62.11;101344.94;2364325;75;50582;-79
2022/10/07 16:00:19;;;;;;;;;;;;;;;20.22;62.08;101347.62;2336709;75;51738;-79
2022/10/07 16:03:21;;;;;;;;;;;;;;;20.23;62.00;101343.40;2337195;75;49860;-79
2022/10/07 16:06:24;;;;;;;;;;;;;;;20.23;61.94;101339.38;2364520;75;50391;-79